sensor_id;sensor_type;location;lat;lon;timestamp;pressure;altitude;pressure_sealevel;temperature;humidity
71107;BME280;58763;47.982;11.516;2023-04-08T00:01:09;94193.81;;;6.23;76.43
71107;BME280;58763;47.982;11.516;2023-04-08T00:03:35;94185.44;;;6.19;76.82
71107;BME280;58763;47.982;11.516;2023-04-08T00:06:00;94186.75;;;6.12;76.78
71107;BME280;58763;47.982;11.516;2023-04-08T00:08:27;94190.53;;;6.16;76.55
71107;BME280;58763;47.982;11.516;2023-04-08T00:10:53;94191.75;;;5.98;76.87
71107;BME280;58763;47.982;11.516;2023-04-08T00:13:19;94194.94;;;5.95;77.88
71107;BME280;58763;47.982;11.516;2023-04-08T00:15:45;94195.47;;;5.92;77.84
71107;BME280;58763;47.982;11.516;2023-04-08T00:18:10;94194.59;;;5.87;78.69
71107;BME280;58763;47.982;11.516;2023-04-08T00:20:37;94195.16;;;5.89;78.94
71107;BME280;58763;47.982;11.516;2023-04-08T00:23:02;94193.00;;;5.86;79.74
71107;BME280;58763;47.982;11.516;2023-04-08T00:25:29;94198.09;;;5.87;79.69
71107;BME280;58763;47.982;11.516;2023-04-08T00:27:55;94193.31;;;5.94;79.21
71107;BME280;58763;47.982;11.516;2023-04-08T00:30:21;94199.50;;;5.68;81.38
71107;BME280;58763;47.982;11.516;2023-04-08T00:32:47;94203.84;;;5.21;83.51
71107;BME280;58763;47.982;11.516;2023-04-08T00:35:13;94203.63;;;5.01;84.58
71107;BME280;58763;47.982;11.516;2023-04-08T00:37:39;94200.59;;;4.92;85.26
71107;BME280;58763;47.982;11.516;2023-04-08T00:40:05;94204.13;;;4.98;85.60
71107;BME280;58763;47.982;11.516;2023-04-08T00:42:31;94210.63;;;5.02;85.42
71107;BME280;58763;47.982;11.516;2023-04-08T00:44:57;94197.72;;;4.77;86.68
71107;BME280;58763;47.982;11.516;2023-04-08T00:47:22;94210.38;;;4.81;86.63
71107;BME280;58763;47.982;11.516;2023-04-08T00:49:48;94210.41;;;4.65;86.90
71107;BME280;58763;47.982;11.516;2023-04-08T00:52:14;94211.72;;;4.62;87.17
71107;BME280;58763;47.982;11.516;2023-04-08T00:54:41;94207.00;;;4.69;86.77
71107;BME280;58763;47.982;11.516;2023-04-08T00:57:07;94217.66;;;4.64;86.96
71107;BME280;58763;47.982;11.516;2023-04-08T00:59:33;94216.44;;;4.55;86.14
71107;BME280;58763;47.982;11.516;2023-04-08T01:04:58;94213.09;;;4.43;86.59
71107;BME280;58763;47.982;11.516;2023-04-08T01:07:28;94218.66;;;4.58;85.03
71107;BME280;58763;47.982;11.516;2023-04-08T01:09:58;94208.25;;;4.62;85.50
71107;BME280;58763;47.982;11.516;2023-04-08T01:12:27;94206.78;;;4.71;84.43
71107;BME280;58763;47.982;11.516;2023-04-08T01:15:04;94214.53;;;4.72;84.95
71107;BME280;58763;47.982;11.516;2023-04-08T01:17:31;94221.56;;;4.78;84.34
71107;BME280;58763;47.982;11.516;2023-04-08T01:19:59;94220.34;;;4.64;84.18
71107;BME280;58763;47.982;11.516;2023-04-08T01:22:54;94219.00;;;4.67;84.65
71107;BME280;58763;47.982;11.516;2023-04-08T01:25:26;94215.66;;;4.76;83.81
71107;BME280;58763;47.982;11.516;2023-04-08T01:27:55;94215.53;;;4.88;83.70
71107;BME280;58763;47.982;11.516;2023-04-08T01:30:23;94215.66;;;4.98;83.08
71107;BME280;58763;47.982;11.516;2023-04-08T01:32:53;94214.97;;;5.08;82.44
71107;BME280;58763;47.982;11.516;2023-04-08T01:38:41;94215.03;;;5.13;81.03
71107;BME280;58763;47.982;11.516;2023-04-08T01:41:09;94208.81;;;5.07;81.85
71107;BME280;58763;47.982;11.516;2023-04-08T01:43:35;94212.78;;;5.05;81.68
71107;BME280;58763;47.982;11.516;2023-04-08T01:46:06;94204.19;;;5.03;81.81
71107;BME280;58763;47.982;11.516;2023-04-08T01:48:34;94209.69;;;5.13;81.82
71107;BME280;58763;47.982;11.516;2023-04-08T01:51:01;94210.72;;;5.12;81.96
71107;BME280;58763;47.982;11.516;2023-04-08T01:53:28;94206.69;;;5.09;81.61
71107;BME280;58763;47.982;11.516;2023-04-08T01:56:10;94204.31;;;5.13;81.48
71107;BME280;58763;47.982;11.516;2023-04-08T01:58:41;94212.41;;;5.18;81.06
71107;BME280;58763;47.982;11.516;2023-04-08T02:01:12;94212.91;;;5.15;81.68
71107;BME280;58763;47.982;11.516;2023-04-08T02:03:42;94205.22;;;4.97;81.98
71107;BME280;58763;47.982;11.516;2023-04-08T02:06:08;94203.16;;;5.04;81.87
71107;BME280;58763;47.982;11.516;2023-04-08T02:08:34;94206.63;;;5.04;81.86
71107;BME280;58763;47.982;11.516;2023-04-08T02:11:03;94207.38;;;5.00;81.62
71107;BME280;58763;47.982;11.516;2023-04-08T02:13:30;94209.50;;;4.98;81.72
71107;BME280;58763;47.982;11.516;2023-04-08T02:16:02;94212.09;;;4.93;81.97
71107;BME280;58763;47.982;11.516;2023-04-08T02:18:30;94214.75;;;4.87;82.26
71107;BME280;58763;47.982;11.516;2023-04-08T02:21:02;94212.84;;;4.88;81.65
71107;BME280;58763;47.982;11.516;2023-04-08T02:23:33;94213.06;;;4.81;81.13
71107;BME280;58763;47.982;11.516;2023-04-08T02:26:03;94214.25;;;4.69;80.92
71107;BME280;58763;47.982;11.516;2023-04-08T02:28:33;94216.53;;;4.60;81.62
71107;BME280;58763;47.982;11.516;2023-04-08T02:31:01;94214.69;;;4.44;81.98
71107;BME280;58763;47.982;11.516;2023-04-08T02:33:28;94210.25;;;4.50;81.54
71107;BME280;58763;47.982;11.516;2023-04-08T02:35:55;94214.06;;;4.37;81.87
71107;BME280;58763;47.982;11.516;2023-04-08T02:38:21;94216.03;;;4.25;81.97
71107;BME280;58763;47.982;11.516;2023-04-08T02:40:48;94217.50;;;4.16;82.12
71107;BME280;58763;47.982;11.516;2023-04-08T02:43:15;94217.94;;;4.08;82.99
71107;BME280;58763;47.982;11.516;2023-04-08T02:45:41;94217.44;;;4.11;83.44
71107;BME280;58763;47.982;11.516;2023-04-08T02:48:07;94208.84;;;4.09;83.76
71107;BME280;58763;47.982;11.516;2023-04-08T02:50:35;94212.81;;;4.06;83.58
71107;BME280;58763;47.982;11.516;2023-04-08T02:53:00;94209.91;;;4.08;83.96
71107;BME280;58763;47.982;11.516;2023-04-08T02:55:26;94211.03;;;4.12;83.78
71107;BME280;58763;47.982;11.516;2023-04-08T02:57:53;94212.03;;;4.06;84.28
71107;BME280;58763;47.982;11.516;2023-04-08T03:00:19;94208.94;;;3.97;84.17
71107;BME280;58763;47.982;11.516;2023-04-08T03:02:44;94209.75;;;3.98;84.35
71107;BME280;58763;47.982;11.516;2023-04-08T03:05:10;94209.00;;;3.86;84.60
71107;BME280;58763;47.982;11.516;2023-04-08T03:07:36;94209.44;;;3.94;84.79
71107;BME280;58763;47.982;11.516;2023-04-08T03:10:02;94206.34;;;3.86;84.23
71107;BME280;58763;47.982;11.516;2023-04-08T03:12:27;94215.56;;;3.78;84.44
71107;BME280;58763;47.982;11.516;2023-04-08T03:14:54;94209.91;;;3.75;85.57
71107;BME280;58763;47.982;11.516;2023-04-08T03:17:20;94218.56;;;3.65;86.33
71107;BME280;58763;47.982;11.516;2023-04-08T03:19:46;94220.53;;;3.70;86.43
71107;BME280;58763;47.982;11.516;2023-04-08T03:22:12;94215.66;;;3.67;86.04
71107;BME280;58763;47.982;11.516;2023-04-08T03:24:38;94222.63;;;3.68;86.36
71107;BME280;58763;47.982;11.516;2023-04-08T03:27:04;94217.84;;;3.70;86.49
71107;BME280;58763;47.982;11.516;2023-04-08T03:29:29;94220.22;;;3.66;86.60
71107;BME280;58763;47.982;11.516;2023-04-08T03:31:55;94217.66;;;3.60;87.10
71107;BME280;58763;47.982;11.516;2023-04-08T03:34:21;94224.75;;;3.66;86.97
71107;BME280;58763;47.982;11.516;2023-04-08T03:36:46;94218.75;;;3.59;87.33
71107;BME280;58763;47.982;11.516;2023-04-08T03:39:12;94227.31;;;3.61;88.27
71107;BME280;58763;47.982;11.516;2023-04-08T03:41:38;94219.78;;;3.58;88.09
71107;BME280;58763;47.982;11.516;2023-04-08T03:44:03;94230.47;;;3.58;88.77
71107;BME280;58763;47.982;11.516;2023-04-08T03:46:29;94225.06;;;3.69;89.35
71107;BME280;58763;47.982;11.516;2023-04-08T03:48:54;94231.06;;;3.76;89.26
71107;BME280;58763;47.982;11.516;2023-04-08T03:51:20;94230.84;;;3.78;89.23
71107;BME280;58763;47.982;11.516;2023-04-08T03:53:46;94232.84;;;3.71;89.95
71107;BME280;58763;47.982;11.516;2023-04-08T03:56:14;94235.09;;;3.79;90.18
71107;BME280;58763;47.982;11.516;2023-04-08T03:58:40;94234.72;;;3.87;90.00
71107;BME280;58763;47.982;11.516;2023-04-08T04:01:05;94239.91;;;3.93;89.96
71107;BME280;58763;47.982;11.516;2023-04-08T04:03:31;94245.00;;;3.95;89.99
71107;BME280;58763;47.982;11.516;2023-04-08T04:05:56;94233.00;;;3.97;89.74
71107;BME280;58763;47.982;11.516;2023-04-08T04:08:24;94228.22;;;3.99;89.69
71107;BME280;58763;47.982;11.516;2023-04-08T04:10:50;94237.97;;;4.05;89.57
71107;BME280;58763;47.982;11.516;2023-04-08T04:13:16;94236.66;;;4.08;89.67
71107;BME280;58763;47.982;11.516;2023-04-08T04:15:42;94243.44;;;4.15;89.87
71107;BME280;58763;47.982;11.516;2023-04-08T04:18:07;94246.13;;;4.15;89.49
71107;BME280;58763;47.982;11.516;2023-04-08T04:20:33;94247.50;;;4.18;89.78
71107;BME280;58763;47.982;11.516;2023-04-08T04:22:58;94245.88;;;4.34;89.09
71107;BME280;58763;47.982;11.516;2023-04-08T04:25:24;94251.31;;;4.39;88.42
71107;BME280;58763;47.982;11.516;2023-04-08T04:27:50;94253.81;;;4.45;88.52
71107;BME280;58763;47.982;11.516;2023-04-08T04:30:15;94249.88;;;4.53;88.27
71107;BME280;58763;47.982;11.516;2023-04-08T04:32:41;94250.59;;;4.43;88.37
71107;BME280;58763;47.982;11.516;2023-04-08T04:35:11;94251.88;;;4.41;88.61
71107;BME280;58763;47.982;11.516;2023-04-08T04:37:37;94254.47;;;4.36;88.79
71107;BME280;58763;47.982;11.516;2023-04-08T04:40:04;94249.44;;;4.39;88.46
71107;BME280;58763;47.982;11.516;2023-04-08T04:42:30;94253.25;;;4.43;88.65
71107;BME280;58763;47.982;11.516;2023-04-08T04:44:56;94253.25;;;4.43;88.37
71107;BME280;58763;47.982;11.516;2023-04-08T04:47:22;94250.06;;;4.46;88.50
71107;BME280;58763;47.982;11.516;2023-04-08T04:49:48;94258.56;;;4.60;87.86
71107;BME280;58763;47.982;11.516;2023-04-08T04:52:13;94263.50;;;4.68;87.82
71107;BME280;58763;47.982;11.516;2023-04-08T04:54:39;94269.22;;;4.76;87.06
71107;BME280;58763;47.982;11.516;2023-04-08T04:57:05;94260.72;;;4.79;87.24
71107;BME280;58763;47.982;11.516;2023-04-08T04:59:30;94269.38;;;4.86;86.50
71107;BME280;58763;47.982;11.516;2023-04-08T05:01:56;94269.72;;;4.90;86.44
71107;BME280;58763;47.982;11.516;2023-04-08T05:04:22;94276.75;;;4.96;86.33
71107;BME280;58763;47.982;11.516;2023-04-08T05:06:48;94269.53;;;4.97;86.34
71107;BME280;58763;47.982;11.516;2023-04-08T05:09:13;94265.09;;;5.07;85.61
71107;BME280;58763;47.982;11.516;2023-04-08T05:11:39;94271.53;;;5.06;85.56
71107;BME280;58763;47.982;11.516;2023-04-08T05:14:05;94274.97;;;5.07;86.14
71107;BME280;58763;47.982;11.516;2023-04-08T05:16:32;94267.97;;;5.01;85.78
71107;BME280;58763;47.982;11.516;2023-04-08T05:18:58;94275.91;;;4.96;85.97
71107;BME280;58763;47.982;11.516;2023-04-08T05:21:23;94261.66;;;4.90;86.32
71107;BME280;58763;47.982;11.516;2023-04-08T05:23:49;94269.44;;;4.92;86.64
71107;BME280;58763;47.982;11.516;2023-04-08T05:26:19;94271.13;;;4.76;87.21
71107;BME280;58763;47.982;11.516;2023-04-08T05:28:47;94278.78;;;4.89;87.07
71107;BME280;58763;47.982;11.516;2023-04-08T05:31:15;94276.28;;;5.04;86.60
71107;BME280;58763;47.982;11.516;2023-04-08T05:33:40;94281.34;;;5.01;85.99
71107;BME280;58763;47.982;11.516;2023-04-08T05:36:06;94274.75;;;5.08;86.20
71107;BME280;58763;47.982;11.516;2023-04-08T05:38:32;94276.34;;;5.09;85.93
71107;BME280;58763;47.982;11.516;2023-04-08T05:40:57;94276.34;;;5.09;85.78
71107;BME280;58763;47.982;11.516;2023-04-08T05:43:23;94280.22;;;5.18;85.80
71107;BME280;58763;47.982;11.516;2023-04-08T05:45:49;94286.03;;;5.32;85.43
71107;BME280;58763;47.982;11.516;2023-04-08T05:48:15;94283.22;;;5.22;85.52
71107;BME280;58763;47.982;11.516;2023-04-08T05:50:40;94278.41;;;5.24;85.23
71107;BME280;58763;47.982;11.516;2023-04-08T05:53:06;94277.25;;;5.15;85.48
71107;BME280;58763;47.982;11.516;2023-04-08T05:55:32;94277.94;;;5.27;85.63
71107;BME280;58763;47.982;11.516;2023-04-08T05:57:57;94280.63;;;5.27;85.69
71107;BME280;58763;47.982;11.516;2023-04-08T06:00:23;94290.25;;;5.28;85.17
71107;BME280;58763;47.982;11.516;2023-04-08T06:02:48;94288.75;;;5.37;85.17
71107;BME280;58763;47.982;11.516;2023-04-08T06:05:14;94291.63;;;5.52;84.81
71107;BME280;58763;47.982;11.516;2023-04-08T06:07:40;94292.56;;;5.41;84.50
71107;BME280;58763;47.982;11.516;2023-04-08T06:10:07;94301.41;;;5.41;84.33
71107;BME280;58763;47.982;11.516;2023-04-08T06:12:35;94302.47;;;5.40;84.23
71107;BME280;58763;47.982;11.516;2023-04-08T06:15:01;94300.47;;;5.52;84.43
71107;BME280;58763;47.982;11.516;2023-04-08T06:17:27;94296.28;;;5.62;84.23
71107;BME280;58763;47.982;11.516;2023-04-08T06:19:52;94296.97;;;5.52;84.43
71107;BME280;58763;47.982;11.516;2023-04-08T06:22:18;94297.47;;;5.49;84.18
71107;BME280;58763;47.982;11.516;2023-04-08T06:24:46;94297.13;;;5.40;84.96
71107;BME280;58763;47.982;11.516;2023-04-08T06:27:12;94296.66;;;5.48;84.57
71107;BME280;58763;47.982;11.516;2023-04-08T06:29:37;94297.81;;;5.52;84.26
71107;BME280;58763;47.982;11.516;2023-04-08T06:32:03;94292.38;;;5.47;84.33
71107;BME280;58763;47.982;11.516;2023-04-08T06:34:30;94291.91;;;5.55;84.50
71107;BME280;58763;47.982;11.516;2023-04-08T06:36:55;94288.19;;;5.56;84.27
71107;BME280;58763;47.982;11.516;2023-04-08T06:39:22;94281.03;;;5.67;84.57
71107;BME280;58763;47.982;11.516;2023-04-08T06:41:47;94288.78;;;5.64;84.16
71107;BME280;58763;47.982;11.516;2023-04-08T06:44:13;94279.53;;;5.76;84.35
71107;BME280;58763;47.982;11.516;2023-04-08T06:46:38;94286.31;;;5.57;84.83
71107;BME280;58763;47.982;11.516;2023-04-08T06:49:04;94290.97;;;5.67;84.17
71107;BME280;58763;47.982;11.516;2023-04-08T06:51:31;94289.75;;;5.52;85.61
71107;BME280;58763;47.982;11.516;2023-04-08T06:53:57;94298.72;;;5.63;84.75
71107;BME280;58763;47.982;11.516;2023-04-08T06:56:23;94307.72;;;5.52;85.02
71107;BME280;58763;47.982;11.516;2023-04-08T06:58:51;94304.34;;;5.62;85.28
71107;BME280;58763;47.982;11.516;2023-04-08T07:01:16;94308.78;;;5.78;84.38
71107;BME280;58763;47.982;11.516;2023-04-08T07:03:42;94299.38;;;5.75;84.01
71107;BME280;58763;47.982;11.516;2023-04-08T07:06:08;94310.75;;;5.60;85.08
71107;BME280;58763;47.982;11.516;2023-04-08T07:08:34;94305.28;;;5.50;85.61
71107;BME280;58763;47.982;11.516;2023-04-08T07:11:00;94313.97;;;5.36;86.10
71107;BME280;58763;47.982;11.516;2023-04-08T07:13:26;94308.91;;;5.39;85.99
71107;BME280;58763;47.982;11.516;2023-04-08T07:15:52;94311.75;;;5.54;85.60
71107;BME280;58763;47.982;11.516;2023-04-08T07:18:18;94312.13;;;5.63;84.86
71107;BME280;58763;47.982;11.516;2023-04-08T07:20:43;94313.19;;;5.62;84.95
71107;BME280;58763;47.982;11.516;2023-04-08T07:23:09;94316.16;;;5.66;85.88
71107;BME280;58763;47.982;11.516;2023-04-08T07:25:35;94313.59;;;5.76;85.26
71107;BME280;58763;47.982;11.516;2023-04-08T07:28:01;94314.09;;;5.73;85.76
71107;BME280;58763;47.982;11.516;2023-04-08T07:30:27;94312.34;;;5.83;85.41
71107;BME280;58763;47.982;11.516;2023-04-08T07:32:52;94316.19;;;5.87;85.27
71107;BME280;58763;47.982;11.516;2023-04-08T07:35:20;94314.66;;;5.75;85.76
71107;BME280;58763;47.982;11.516;2023-04-08T07:37:51;94318.84;;;5.66;86.47
71107;BME280;58763;47.982;11.516;2023-04-08T07:40:17;94315.63;;;5.64;86.91
71107;BME280;58763;47.982;11.516;2023-04-08T07:42:43;94322.50;;;5.81;86.79
71107;BME280;58763;47.982;11.516;2023-04-08T07:45:09;94323.59;;;5.58;88.00
71107;BME280;58763;47.982;11.516;2023-04-08T07:47:35;94318.03;;;5.65;88.00
71107;BME280;58763;47.982;11.516;2023-04-08T07:50:01;94322.50;;;5.54;88.25
71107;BME280;58763;47.982;11.516;2023-04-08T07:52:30;94324.28;;;5.49;89.34
71107;BME280;58763;47.982;11.516;2023-04-08T07:54:56;94327.97;;;5.65;89.05
71107;BME280;58763;47.982;11.516;2023-04-08T07:57:21;94325.84;;;5.67;89.08
71107;BME280;58763;47.982;11.516;2023-04-08T07:59:47;94331.34;;;5.55;86.24
71107;BME280;58763;47.982;11.516;2023-04-08T08:02:12;94337.97;;;5.47;82.68
71107;BME280;58763;47.982;11.516;2023-04-08T08:04:38;94342.03;;;5.50;80.02
71107;BME280;58763;47.982;11.516;2023-04-08T08:07:04;94347.50;;;5.60;79.88
71107;BME280;58763;47.982;11.516;2023-04-08T08:09:30;94346.00;;;5.69;79.28
71107;BME280;58763;47.982;11.516;2023-04-08T08:11:55;94346.75;;;5.65;79.57
71107;BME280;58763;47.982;11.516;2023-04-08T08:14:21;94351.59;;;5.68;79.97
71107;BME280;58763;47.982;11.516;2023-04-08T08:16:47;94354.91;;;5.75;79.57
71107;BME280;58763;47.982;11.516;2023-04-08T08:19:12;94352.91;;;5.65;79.03
71107;BME280;58763;47.982;11.516;2023-04-08T08:21:38;94360.34;;;5.58;80.03
71107;BME280;58763;47.982;11.516;2023-04-08T08:24:04;94358.72;;;5.57;79.60
71107;BME280;58763;47.982;11.516;2023-04-08T08:26:30;94350.38;;;5.53;78.25
71107;BME280;58763;47.982;11.516;2023-04-08T08:28:56;94360.88;;;5.55;78.16
71107;BME280;58763;47.982;11.516;2023-04-08T08:31:22;94366.28;;;5.60;78.94
71107;BME280;58763;47.982;11.516;2023-04-08T08:33:48;94361.97;;;5.59;79.32
71107;BME280;58763;47.982;11.516;2023-04-08T08:36:14;94371.19;;;5.68;79.51
71107;BME280;58763;47.982;11.516;2023-04-08T08:38:40;94375.94;;;5.83;79.52
71107;BME280;58763;47.982;11.516;2023-04-08T08:41:06;94374.06;;;5.83;78.96
71107;BME280;58763;47.982;11.516;2023-04-08T08:43:32;94383.03;;;5.72;77.79
71107;BME280;58763;47.982;11.516;2023-04-08T08:45:58;94382.81;;;5.74;76.83
71107;BME280;58763;47.982;11.516;2023-04-08T08:48:24;94379.81;;;5.70;78.36
71107;BME280;58763;47.982;11.516;2023-04-08T08:50:50;94381.44;;;5.49;77.04
71107;BME280;58763;47.982;11.516;2023-04-08T08:53:18;94385.97;;;5.49;76.56
71107;BME280;58763;47.982;11.516;2023-04-08T08:55:44;94387.53;;;5.45;77.62
71107;BME280;58763;47.982;11.516;2023-04-08T08:58:10;94384.66;;;5.30;76.53
71107;BME280;58763;47.982;11.516;2023-04-08T09:00:39;94391.28;;;5.44;76.99
71107;BME280;58763;47.982;11.516;2023-04-08T09:03:26;94378.50;;;5.51;77.88
71107;BME280;58763;47.982;11.516;2023-04-08T09:05:55;94380.31;;;5.45;77.89
71107;BME280;58763;47.982;11.516;2023-04-08T09:08:28;94383.38;;;5.54;77.99
71107;BME280;58763;47.982;11.516;2023-04-08T09:10:56;94385.28;;;5.58;77.80
71107;BME280;58763;47.982;11.516;2023-04-08T09:13:34;94391.63;;;5.69;78.17
71107;BME280;58763;47.982;11.516;2023-04-08T09:16:05;94391.84;;;5.68;79.00
71107;BME280;58763;47.982;11.516;2023-04-08T09:18:32;94394.91;;;5.76;78.95
71107;BME280;58763;47.982;11.516;2023-04-08T09:20:59;94400.31;;;5.81;79.22
71107;BME280;58763;47.982;11.516;2023-04-08T09:23:44;94404.78;;;5.92;79.12
71107;BME280;58763;47.982;11.516;2023-04-08T09:28:38;94401.31;;;5.53;79.88
71107;BME280;58763;47.982;11.516;2023-04-08T09:31:37;94395.97;;;5.32;79.51
71107;BME280;58763;47.982;11.516;2023-04-08T09:34:15;94401.88;;;5.34;81.48
71107;BME280;58763;47.982;11.516;2023-04-08T09:36:42;94401.31;;;5.53;80.48
71107;BME280;58763;47.982;11.516;2023-04-08T09:39:13;94397.56;;;5.33;81.37
71107;BME280;58763;47.982;11.516;2023-04-08T09:41:40;94399.09;;;5.45;81.15
71107;BME280;58763;47.982;11.516;2023-04-08T09:44:10;94407.88;;;5.41;80.89
71107;BME280;58763;47.982;11.516;2023-04-08T09:49:32;94409.66;;;5.35;80.92
71107;BME280;58763;47.982;11.516;2023-04-08T09:52:27;94403.47;;;5.13;80.96
71107;BME280;58763;47.982;11.516;2023-04-08T09:55:02;94405.56;;;5.11;81.08
71107;BME280;58763;47.982;11.516;2023-04-08T09:57:45;94410.06;;;5.06;80.84
71107;BME280;58763;47.982;11.516;2023-04-08T10:00:16;94411.94;;;4.88;81.33
71107;BME280;58763;47.982;11.516;2023-04-08T10:05:12;94404.81;;;4.77;81.81
71107;BME280;58763;47.982;11.516;2023-04-08T10:07:38;94415.09;;;4.85;82.30
71107;BME280;58763;47.982;11.516;2023-04-08T10:10:06;94414.22;;;4.80;81.42
71107;BME280;58763;47.982;11.516;2023-04-08T10:12:33;94411.19;;;4.93;81.34
71107;BME280;58763;47.982;11.516;2023-04-08T10:15:32;94415.91;;;5.03;81.96
71107;BME280;58763;47.982;11.516;2023-04-08T10:22:58;94410.81;;;5.23;80.94
71107;BME280;58763;47.982;11.516;2023-04-08T10:25:34;94412.59;;;5.34;80.95
71107;BME280;58763;47.982;11.516;2023-04-08T10:28:23;94408.84;;;5.13;81.31
71107;BME280;58763;47.982;11.516;2023-04-08T10:30:52;94411.19;;;5.10;81.94
71107;BME280;58763;47.982;11.516;2023-04-08T10:33:22;94401.13;;;5.00;82.02
71107;BME280;58763;47.982;11.516;2023-04-08T10:35:54;94413.78;;;4.88;81.10
71107;BME280;58763;47.982;11.516;2023-04-08T10:38:20;94410.47;;;4.81;81.76
71107;BME280;58763;47.982;11.516;2023-04-08T10:40:47;94411.13;;;4.71;83.51
71107;BME280;58763;47.982;11.516;2023-04-08T10:43:13;94418.59;;;4.86;82.23
71107;BME280;58763;47.982;11.516;2023-04-08T10:45:41;94411.22;;;4.76;81.44
71107;BME280;58763;47.982;11.516;2023-04-08T10:48:25;94414.78;;;4.82;84.78
71107;BME280;58763;47.982;11.516;2023-04-08T10:50:54;94407.13;;;5.07;83.03
71107;BME280;58763;47.982;11.516;2023-04-08T10:53:27;94414.31;;;5.02;83.06
71107;BME280;58763;47.982;11.516;2023-04-08T10:55:54;94406.25;;;5.02;82.91
71107;BME280;58763;47.982;11.516;2023-04-08T10:58:27;94403.72;;;4.78;81.61
71107;BME280;58763;47.982;11.516;2023-04-08T11:00:53;94401.06;;;4.78;83.13
71107;BME280;58763;47.982;11.516;2023-04-08T11:03:18;94396.69;;;4.89;81.61
71107;BME280;58763;47.982;11.516;2023-04-08T11:05:44;94390.31;;;4.95;82.63
71107;BME280;58763;47.982;11.516;2023-04-08T11:08:09;94399.53;;;4.99;83.57
71107;BME280;58763;47.982;11.516;2023-04-08T11:10:37;94400.66;;;4.86;82.36
71107;BME280;58763;47.982;11.516;2023-04-08T11:13:06;94398.53;;;5.05;82.33
71107;BME280;58763;47.982;11.516;2023-04-08T11:15:33;94403.69;;;5.12;82.33
71107;BME280;58763;47.982;11.516;2023-04-08T11:18:02;94407.44;;;5.27;82.05
71107;BME280;58763;47.982;11.516;2023-04-08T11:20:28;94402.53;;;5.41;82.38
71107;BME280;58763;47.982;11.516;2023-04-08T11:22:54;94397.59;;;5.54;82.04
71107;BME280;58763;47.982;11.516;2023-04-08T11:25:19;94404.31;;;5.35;80.37
71107;BME280;58763;47.982;11.516;2023-04-08T11:27:46;94407.00;;;5.35;80.90
71107;BME280;58763;47.982;11.516;2023-04-08T11:30:12;94404.69;;;5.44;80.00
71107;BME280;58763;47.982;11.516;2023-04-08T11:32:37;94407.06;;;5.40;79.16
71107;BME280;58763;47.982;11.516;2023-04-08T11:35:04;94402.31;;;5.47;79.54
71107;BME280;58763;47.982;11.516;2023-04-08T11:37:40;94403.56;;;5.40;78.49
71107;BME280;58763;47.982;11.516;2023-04-08T11:40:08;94397.75;;;5.26;79.98
71107;BME280;58763;47.982;11.516;2023-04-08T11:42:33;94396.94;;;5.26;80.61
71107;BME280;58763;47.982;11.516;2023-04-08T11:44:59;94392.75;;;5.13;80.86
71107;BME280;58763;47.982;11.516;2023-04-08T11:47:32;94388.69;;;5.11;80.33
71107;BME280;58763;47.982;11.516;2023-04-08T11:49:58;94390.56;;;5.10;80.48
71107;BME280;58763;47.982;11.516;2023-04-08T11:52:49;94398.91;;;5.14;79.90
71107;BME280;58763;47.982;11.516;2023-04-08T11:55:25;94395.75;;;5.00;80.66
71107;BME280;58763;47.982;11.516;2023-04-08T11:57:53;94394.13;;;5.16;80.65
71107;BME280;58763;47.982;11.516;2023-04-08T12:00:20;94398.25;;;5.07;80.57
71107;BME280;58763;47.982;11.516;2023-04-08T12:02:46;94398.84;;;5.09;80.62
71107;BME280;58763;47.982;11.516;2023-04-08T12:05:16;94407.25;;;5.34;80.71
71107;BME280;58763;47.982;11.516;2023-04-08T12:07:42;94413.44;;;5.34;79.71
71107;BME280;58763;47.982;11.516;2023-04-08T12:10:09;94417.81;;;5.62;79.51
71107;BME280;58763;47.982;11.516;2023-04-08T12:12:36;94418.16;;;5.87;79.11
71107;BME280;58763;47.982;11.516;2023-04-08T12:15:02;94416.63;;;5.96;79.02
71107;BME280;58763;47.982;11.516;2023-04-08T12:17:29;94420.22;;;6.02;79.00
71107;BME280;58763;47.982;11.516;2023-04-08T12:19:55;94417.81;;;6.05;77.34
71107;BME280;58763;47.982;11.516;2023-04-08T12:22:22;94422.53;;;6.20;77.84
71107;BME280;58763;47.982;11.516;2023-04-08T12:24:48;94424.00;;;6.06;75.89
71107;BME280;58763;47.982;11.516;2023-04-08T12:27:14;94419.59;;;5.95;76.57
71107;BME280;58763;47.982;11.516;2023-04-08T12:29:40;94423.00;;;5.69;76.03
71107;BME280;58763;47.982;11.516;2023-04-08T12:32:06;94422.38;;;5.83;76.86
71107;BME280;58763;47.982;11.516;2023-04-08T12:34:32;94428.94;;;5.92;76.63
71107;BME280;58763;47.982;11.516;2023-04-08T12:36:58;94434.69;;;6.01;76.81
71107;BME280;58763;47.982;11.516;2023-04-08T12:39:24;94436.59;;;6.05;76.60
71107;BME280;58763;47.982;11.516;2023-04-08T12:41:53;94431.53;;;5.66;78.61
71107;BME280;58763;47.982;11.516;2023-04-08T12:44:19;94430.88;;;5.37;77.66
71107;BME280;58763;47.982;11.516;2023-04-08T12:46:46;94435.75;;;5.40;77.85
71107;BME280;58763;47.982;11.516;2023-04-08T12:49:11;94434.91;;;5.39;78.32
71107;BME280;58763;47.982;11.516;2023-04-08T12:51:37;94437.44;;;5.46;78.22
71107;BME280;58763;47.982;11.516;2023-04-08T12:54:04;94435.19;;;5.38;78.33
71107;BME280;58763;47.982;11.516;2023-04-08T12:56:30;94434.88;;;5.34;79.05
71107;BME280;58763;47.982;11.516;2023-04-08T12:59:00;94431.47;;;5.22;79.34
71107;BME280;58763;47.982;11.516;2023-04-08T13:01:26;94436.63;;;5.45;79.58
71107;BME280;58763;47.982;11.516;2023-04-08T13:03:52;94436.03;;;5.60;79.31
71107;BME280;58763;47.982;11.516;2023-04-08T13:06:18;94438.88;;;5.53;79.01
71107;BME280;58763;47.982;11.516;2023-04-08T13:08:44;94446.84;;;5.48;79.46
71107;BME280;58763;47.982;11.516;2023-04-08T13:11:09;94443.19;;;5.54;79.65
71107;BME280;58763;47.982;11.516;2023-04-08T13:13:35;94440.13;;;5.46;81.15
71107;BME280;58763;47.982;11.516;2023-04-08T13:16:01;94443.94;;;5.50;81.04
71107;BME280;58763;47.982;11.516;2023-04-08T13:18:28;94438.19;;;5.63;80.66
71107;BME280;58763;47.982;11.516;2023-04-08T13:20:54;94434.94;;;5.61;80.43